Zarephath, New Jersey
Current Conditions -  °F | °C
As of 1:20 PM on Sunday 21 Dec 2014 (Local Time) from KSMQ Reporting Station
Overcast Overcast  
Wind Chill: 30°   Ceiling: 3200
Heat Index: 36°   Visibility: 10mi
Dew Point: 25°   Wind: 8mph
Humidity: 64%   Direction: 340°NNW
Pressure: 30.28"   Gusts: NA
Location:  40.54°N, 74.57°W
Report Text: KSMQ 211820Z AUTO 34007KT 10SM SCT023 OVC032 02/M04 A3028 RMK AO2 T00221039
Loading
Personal Weather Stations






























Interactive Weather Map New forecast layout! Learn more

10-Day Weather Forecast

Advertisements
Track Severe Weather on mobile